createdAt,value
2018-07-12T00:00:52.834Z,14.74
2018-07-12T00:03:23.974Z,14.71
2018-07-12T00:05:55.081Z,14.68
2018-07-12T00:08:26.176Z,14.61
2018-07-12T00:10:57.322Z,14.59
2018-07-12T00:13:28.421Z,14.58
2018-07-12T00:15:59.559Z,14.57
2018-07-12T00:18:30.656Z,14.54
2018-07-12T00:21:01.767Z,14.55
2018-07-12T00:23:32.899Z,14.43
2018-07-12T00:26:04.066Z,14.36
2018-07-12T00:28:35.167Z,14.33
2018-07-12T00:31:06.311Z,14.41
2018-07-12T00:33:37.423Z,14.44
2018-07-12T00:36:08.549Z,14.38
2018-07-12T00:38:39.657Z,14.38
2018-07-12T00:41:10.788Z,14.40
2018-07-12T00:43:41.932Z,14.52
2018-07-12T00:46:13.072Z,14.62
2018-07-12T00:48:44.208Z,14.60
2018-07-12T00:51:15.293Z,14.62
2018-07-12T00:53:46.382Z,14.60
2018-07-12T00:56:17.489Z,14.69
2018-07-12T00:58:48.547Z,14.65
2018-07-12T01:01:19.708Z,14.61
2018-07-12T01:03:50.839Z,14.58
2018-07-12T01:06:21.963Z,14.62
2018-07-12T01:08:53.065Z,14.59
2018-07-12T01:11:24.210Z,14.60
2018-07-12T01:13:55.303Z,14.57
2018-07-12T01:16:26.429Z,14.50
2018-07-12T01:18:57.564Z,14.41
2018-07-12T01:21:28.671Z,14.37
2018-07-12T01:23:59.831Z,14.46
2018-07-12T01:26:31.073Z,14.34
2018-07-12T01:29:02.155Z,14.21
2018-07-12T01:31:33.265Z,14.09
2018-07-12T01:34:04.383Z,14.09
2018-07-12T01:36:35.496Z,14.18
2018-07-12T01:39:06.954Z,14.09
2018-07-12T01:41:38.064Z,14.10
2018-07-12T01:44:09.194Z,14.16
2018-07-12T01:46:40.333Z,14.15
2018-07-12T01:49:11.496Z,14.20
2018-07-12T01:51:43.625Z,14.22
2018-07-12T01:54:14.804Z,14.22
2018-07-12T01:56:45.948Z,14.17
2018-07-12T01:59:17.051Z,14.12
2018-07-12T02:01:48.195Z,14.05
2018-07-12T02:04:19.338Z,14.19
2018-07-12T02:06:50.480Z,14.20
2018-07-12T02:09:21.584Z,14.22
2018-07-12T02:11:52.708Z,14.26
2018-07-12T02:14:23.848Z,14.25
2018-07-12T02:16:55.003Z,14.27
2018-07-12T02:19:26.113Z,14.30
2018-07-12T02:21:57.315Z,14.27
2018-07-12T02:24:28.422Z,14.26
2018-07-12T02:27:00.076Z,14.30
2018-07-12T02:29:31.198Z,14.37
2018-07-12T02:32:02.312Z,14.30
2018-07-12T02:34:33.432Z,14.36
2018-07-12T02:37:04.590Z,14.34
2018-07-12T02:39:35.717Z,14.29
2018-07-12T02:42:06.867Z,14.22
2018-07-12T02:44:38.011Z,14.10
2018-07-12T02:47:09.229Z,14.00
2018-07-12T02:49:40.324Z,13.95
2018-07-12T02:52:11.787Z,13.92
2018-07-12T02:54:43.211Z,13.87
2018-07-12T02:57:14.352Z,13.77
2018-07-12T02:59:45.520Z,13.79
2018-07-12T03:02:16.677Z,13.77
2018-07-12T03:04:47.800Z,13.84
2018-07-12T03:08:22.089Z,13.75
2018-07-12T03:10:53.220Z,13.76
2018-07-12T03:13:24.337Z,13.77
2018-07-12T03:15:55.469Z,13.74
2018-07-12T03:18:26.653Z,13.76
2018-07-12T03:20:57.760Z,13.70
2018-07-12T03:23:28.900Z,13.78
2018-07-12T03:25:59.996Z,13.74
2018-07-12T03:28:31.126Z,13.71
2018-07-12T03:31:02.253Z,13.68
2018-07-12T03:33:33.381Z,13.70
2018-07-12T03:36:04.596Z,13.67
2018-07-12T03:38:35.682Z,13.69
2018-07-12T03:41:06.767Z,13.71
2018-07-12T03:43:37.890Z,13.72
2018-07-12T03:46:09.022Z,13.69
2018-07-12T03:48:41.099Z,13.64
2018-07-12T03:51:12.295Z,13.63
2018-07-12T03:53:43.444Z,13.60
2018-07-12T03:56:14.582Z,13.56
2018-07-12T03:58:45.682Z,13.44
2018-07-12T04:01:16.748Z,13.39
2018-07-12T04:03:47.902Z,13.29
2018-07-12T04:06:19.014Z,13.21
2018-07-12T04:08:50.129Z,13.15
2018-07-12T04:11:21.242Z,13.19
2018-07-12T04:13:52.394Z,13.13
2018-07-12T04:16:23.546Z,13.16
2018-07-12T04:18:54.679Z,13.21
2018-07-12T04:21:25.800Z,13.25
2018-07-12T04:23:56.966Z,13.25
2018-07-12T04:26:28.124Z,13.29
2018-07-12T04:28:59.223Z,13.35
2018-07-12T04:31:30.369Z,13.35
2018-07-12T04:34:01.600Z,13.37
2018-07-12T04:36:32.868Z,13.40
2018-07-12T04:39:04.584Z,13.49
2018-07-12T04:41:35.713Z,13.57
2018-07-12T04:44:06.851Z,13.68
2018-07-12T04:46:37.994Z,13.75
2018-07-12T04:49:09.105Z,13.79
2018-07-12T04:51:40.516Z,13.79
2018-07-12T04:54:11.721Z,13.85
2018-07-12T04:56:42.852Z,13.86
2018-07-12T04:59:14.349Z,14.02
2018-07-12T05:01:46.088Z,14.06
2018-07-12T05:04:17.184Z,14.12
2018-07-12T05:06:48.265Z,14.26
2018-07-12T05:09:19.368Z,14.40
2018-07-12T05:11:50.755Z,14.38
2018-07-12T05:14:22.008Z,14.40
2018-07-12T05:16:53.113Z,14.35
2018-07-12T05:19:24.478Z,14.30
2018-07-12T05:21:55.706Z,14.18
2018-07-12T05:24:26.788Z,14.27
2018-07-12T05:26:57.908Z,14.22
2018-07-12T05:29:29.074Z,14.23
2018-07-12T05:32:00.200Z,14.33
2018-07-12T05:34:33.475Z,14.45
2018-07-12T05:37:05.741Z,14.57
2018-07-12T05:39:37.870Z,14.51
2018-07-12T05:42:09.991Z,14.76
2018-07-12T05:44:42.175Z,14.99
2018-07-12T05:47:14.427Z,15.29
2018-07-12T05:49:46.652Z,15.73
2018-07-12T05:52:18.777Z,15.89
2018-07-12T05:54:50.866Z,15.85
2018-07-12T05:57:23.085Z,15.80
2018-07-12T05:59:55.178Z,15.95
2018-07-12T06:02:27.327Z,16.23
2018-07-12T06:04:59.485Z,16.35
2018-07-12T06:07:31.791Z,16.35
2018-07-12T06:10:04.065Z,16.19
2018-07-12T06:12:36.240Z,16.30
2018-07-12T06:15:08.397Z,16.02
2018-07-12T06:17:40.525Z,16.23
2018-07-12T06:20:12.633Z,16.29
2018-07-12T06:22:44.790Z,16.28
2018-07-12T06:25:16.978Z,16.39
2018-07-12T06:27:49.245Z,16.48
2018-07-12T06:30:21.404Z,16.53
2018-07-12T06:32:53.766Z,16.64
2018-07-12T06:35:25.889Z,16.76
2018-07-12T06:37:57.993Z,17.10
2018-07-12T06:40:30.124Z,16.89
2018-07-12T06:43:02.270Z,17.04
2018-07-12T06:45:34.351Z,16.81
2018-07-12T06:48:13.363Z,16.64
2018-07-12T06:50:45.559Z,16.81
2018-07-12T06:53:17.676Z,16.91
2018-07-12T06:55:49.815Z,16.77
2018-07-12T06:58:21.956Z,16.63
2018-07-12T07:00:54.204Z,16.80
2018-07-12T07:03:26.311Z,16.85
2018-07-12T07:05:58.465Z,16.93
2018-07-12T07:08:30.589Z,17.28
2018-07-12T07:11:02.697Z,17.27
2018-07-12T07:13:34.777Z,17.60
2018-07-12T07:16:07.765Z,17.75
2018-07-12T07:18:39.944Z,18.08
2018-07-12T07:21:12.080Z,18.30
2018-07-12T07:23:44.201Z,18.98
2018-07-12T07:26:16.363Z,20.05
2018-07-12T07:28:48.411Z,21.30
2018-07-12T07:31:20.780Z,21.83
2018-07-12T07:33:52.859Z,21.33
2018-07-12T07:36:25.001Z,22.62
2018-07-12T07:38:57.110Z,23.55
2018-07-12T07:41:29.277Z,24.33
2018-07-12T07:44:01.409Z,24.07
2018-07-12T07:46:33.567Z,23.69
2018-07-12T07:49:05.636Z,23.33
2018-07-12T07:51:37.731Z,23.27
2018-07-12T07:54:09.801Z,23.11
2018-07-12T07:56:41.970Z,24.12
2018-07-12T07:59:14.059Z,25.53
2018-07-12T08:01:46.143Z,24.71
2018-07-12T08:04:18.231Z,25.10
2018-07-12T08:06:50.415Z,24.73
2018-07-12T08:09:22.602Z,24.67
2018-07-12T08:11:54.751Z,23.05
2018-07-12T08:14:26.913Z,23.62
2018-07-12T08:16:59.317Z,24.50
2018-07-12T08:19:31.465Z,25.71
2018-07-12T08:22:07.184Z,26.34
2018-07-12T08:24:39.292Z,26.82
2018-07-12T08:27:11.440Z,29.04
2018-07-12T08:29:43.535Z,27.70
2018-07-12T08:32:15.711Z,26.21
2018-07-12T08:34:47.909Z,24.64
2018-07-12T08:37:20.094Z,25.72
2018-07-12T08:39:52.246Z,26.62
2018-07-12T08:42:25.388Z,26.96
2018-07-12T08:44:57.464Z,26.87
2018-07-12T08:47:29.582Z,27.68
2018-07-12T08:50:01.728Z,26.98
2018-07-12T08:52:33.894Z,26.80
2018-07-12T08:55:06.102Z,27.53
2018-07-12T08:57:38.363Z,28.45
2018-07-12T09:00:10.538Z,26.48
2018-07-12T09:02:42.950Z,26.11
2018-07-12T09:05:15.085Z,24.61
2018-07-12T09:07:47.259Z,24.57
2018-07-12T09:10:19.420Z,24.96
2018-07-12T09:12:51.583Z,24.04
2018-07-12T09:15:23.817Z,23.69
2018-07-12T09:17:55.923Z,24.33
2018-07-12T09:20:28.287Z,24.35
2018-07-12T09:23:00.447Z,24.33
2018-07-12T09:25:32.600Z,24.21
2018-07-12T09:28:04.713Z,23.57
2018-07-12T09:30:36.857Z,24.04
2018-07-12T09:33:08.982Z,23.44
2018-07-12T09:35:41.189Z,24.45
2018-07-12T09:38:24.992Z,26.46
2018-07-12T09:40:57.221Z,27.30
2018-07-12T09:43:31.109Z,28.21
2018-07-12T09:46:03.218Z,28.61
2018-07-12T09:48:35.757Z,28.34
2018-07-12T09:51:08.920Z,28.94
2018-07-12T09:53:43.228Z,29.18
2018-07-12T09:56:17.533Z,28.14
2018-07-12T09:58:49.561Z,25.92
2018-07-12T10:01:27.268Z,26.95
2018-07-12T10:03:59.389Z,27.15
2018-07-12T10:06:31.573Z,27.01
2018-07-12T10:09:09.453Z,26.49
2018-07-12T10:11:47.217Z,25.00
2018-07-12T10:14:24.905Z,25.58
2018-07-12T10:17:02.626Z,25.90
2018-07-12T10:19:34.732Z,24.35
2018-07-12T10:22:07.219Z,24.00
2018-07-12T10:24:39.488Z,23.98
2018-07-12T10:27:15.426Z,25.62
2018-07-12T10:29:47.531Z,24.93
2018-07-12T10:32:20.753Z,24.17
2018-07-12T10:34:52.864Z,23.50
2018-07-12T10:37:24.953Z,24.26
2018-07-12T10:39:57.219Z,25.17
2018-07-12T10:42:29.368Z,25.24
2018-07-12T10:45:01.496Z,25.20
2018-07-12T10:47:33.846Z,26.10
2018-07-12T10:50:06.540Z,26.67
2018-07-12T10:52:38.624Z,26.62
2018-07-12T10:55:10.767Z,27.81
2018-07-12T10:57:42.868Z,29.00
2018-07-12T11:00:15.041Z,28.32
2018-07-12T11:02:49.388Z,28.37
2018-07-12T11:05:21.502Z,27.97
2018-07-12T11:07:53.600Z,27.31
2018-07-12T11:10:25.965Z,26.82
2018-07-12T11:13:09.838Z,26.85
2018-07-12T11:15:42.567Z,25.60
2018-07-12T11:18:14.772Z,25.83
2018-07-12T11:20:46.889Z,27.17
2018-07-12T11:23:19.055Z,26.27
2018-07-12T11:25:51.284Z,26.01
2018-07-12T11:28:23.424Z,26.59
2018-07-12T11:31:00.170Z,27.68
2018-07-12T11:33:36.131Z,27.54
2018-07-12T11:36:08.602Z,26.97
2018-07-12T11:38:41.824Z,26.48
2018-07-12T11:41:14.325Z,26.42
2018-07-12T11:43:46.529Z,27.54
2018-07-12T11:46:18.704Z,28.30
2018-07-12T11:48:50.804Z,27.71
2018-07-12T11:51:23.094Z,28.49
2018-07-12T11:53:55.444Z,28.94
2018-07-12T11:56:27.925Z,29.14
2018-07-12T11:59:00.340Z,28.23
2018-07-12T12:01:33.778Z,27.78
2018-07-12T12:04:06.587Z,26.35
2018-07-12T12:06:39.014Z,26.45
2018-07-12T12:09:11.184Z,26.85
2018-07-12T12:11:43.396Z,28.08
2018-07-12T12:14:15.648Z,28.24
2018-07-12T12:16:47.811Z,28.15
2018-07-12T12:19:21.676Z,28.39
2018-07-12T12:21:53.825Z,27.14
2018-07-12T12:24:26.084Z,27.53
2018-07-12T12:26:58.266Z,28.79
2018-07-12T12:29:30.435Z,26.99
2018-07-12T12:32:02.638Z,25.60
2018-07-12T12:34:34.884Z,25.40
2018-07-12T12:37:07.102Z,27.90
2018-07-12T12:39:39.269Z,29.59
2018-07-12T12:42:11.407Z,31.08
2018-07-12T12:44:43.537Z,31.16
2018-07-12T12:47:15.631Z,29.64
2018-07-12T12:49:47.802Z,28.22
2018-07-12T12:52:19.935Z,28.68
2018-07-12T12:54:52.150Z,28.03
2018-07-12T12:57:24.341Z,29.42
2018-07-12T12:59:56.473Z,30.93
2018-07-12T13:02:28.707Z,32.07
2018-07-12T13:05:00.847Z,32.86
2018-07-12T13:07:32.966Z,33.80
2018-07-12T13:10:05.543Z,34.11
2018-07-12T13:12:37.739Z,33.89
2018-07-12T13:15:09.863Z,34.77
2018-07-12T13:17:41.974Z,34.49
2018-07-12T13:20:14.031Z,34.22
2018-07-12T13:22:46.140Z,33.57
2018-07-12T13:25:18.303Z,30.22
2018-07-12T13:27:50.597Z,31.30
2018-07-12T13:30:22.724Z,32.44
2018-07-12T13:32:54.888Z,32.56
2018-07-12T13:35:27.019Z,34.46
2018-07-12T13:37:59.221Z,33.74
2018-07-12T13:40:31.407Z,34.45
2018-07-12T13:43:03.554Z,34.84
2018-07-12T13:45:35.719Z,34.30
2018-07-12T13:48:07.856Z,33.65
2018-07-12T13:50:39.940Z,30.99
2018-07-12T13:53:12.069Z,30.09
2018-07-12T13:55:44.266Z,29.21
2018-07-12T13:58:16.420Z,28.73
2018-07-12T14:00:48.526Z,31.35
2018-07-12T14:03:20.703Z,32.93
2018-07-12T14:05:52.799Z,32.10
2018-07-12T14:08:24.874Z,29.88
2018-07-12T14:10:56.989Z,28.33
2018-07-12T14:13:29.133Z,30.25
2018-07-12T14:16:01.235Z,31.23
2018-07-12T14:18:33.388Z,31.32
2018-07-12T14:21:05.480Z,31.19
2018-07-12T14:23:37.608Z,29.74
2018-07-12T14:26:09.826Z,29.73
2018-07-12T14:28:42.541Z,31.44
2018-07-12T14:31:14.755Z,33.55
2018-07-12T14:33:47.227Z,35.49
2018-07-12T14:36:19.415Z,34.34
2018-07-12T14:38:52.818Z,35.35
2018-07-12T14:41:24.928Z,35.56
2018-07-12T14:43:57.075Z,35.45
2018-07-12T14:46:29.192Z,35.64
2018-07-12T14:49:01.563Z,34.93
2018-07-12T14:51:33.749Z,33.80
2018-07-12T14:54:06.089Z,32.33
2018-07-12T14:56:38.247Z,33.47
2018-07-12T14:59:10.427Z,34.52
2018-07-12T15:01:43.273Z,34.35
2018-07-12T15:04:15.491Z,32.84
2018-07-12T15:06:47.682Z,33.21
2018-07-12T15:09:19.944Z,32.57
2018-07-12T15:11:52.017Z,31.15
2018-07-12T15:14:24.102Z,29.19
2018-07-12T15:16:57.017Z,28.30
2018-07-12T15:19:29.319Z,27.75
2018-07-12T15:22:01.476Z,27.06
2018-07-12T15:24:33.650Z,27.67
2018-07-12T15:27:05.731Z,27.81
2018-07-12T15:29:37.820Z,28.40
2018-07-12T15:32:10.059Z,28.78
2018-07-12T15:34:42.307Z,27.49
2018-07-12T15:37:14.492Z,27.50
2018-07-12T15:39:46.675Z,26.96
2018-07-12T15:42:18.833Z,26.97
2018-07-12T15:44:51.269Z,27.24
2018-07-12T15:47:23.429Z,26.64
2018-07-12T15:49:55.577Z,26.09
2018-07-12T15:52:27.721Z,25.85
2018-07-12T15:54:59.870Z,26.14
2018-07-12T15:57:31.992Z,26.58
2018-07-12T16:00:04.902Z,26.79
2018-07-12T16:02:37.055Z,27.19
2018-07-12T16:05:09.203Z,27.30
2018-07-12T16:07:41.347Z,27.03
2018-07-12T16:10:14.462Z,27.18
2018-07-12T16:12:46.631Z,26.58
2018-07-12T16:15:19.008Z,27.40
2018-07-12T16:17:52.142Z,29.56
2018-07-12T16:20:24.307Z,31.02
2018-07-12T16:22:56.439Z,31.07
2018-07-12T16:25:28.647Z,30.86
2018-07-12T16:28:00.943Z,30.25
2018-07-12T16:30:33.171Z,29.51
2018-07-12T16:33:05.342Z,30.65
2018-07-12T16:35:37.499Z,30.73
2018-07-12T16:38:09.701Z,30.35
2018-07-12T16:40:41.959Z,30.49
2018-07-12T16:43:14.363Z,31.18
2018-07-12T16:45:46.527Z,29.63
2018-07-12T16:48:18.657Z,29.80
2018-07-12T16:50:50.814Z,28.80
2018-07-12T16:53:22.981Z,27.98
2018-07-12T16:55:55.249Z,27.67
2018-07-12T16:58:27.427Z,27.47
2018-07-12T17:00:59.874Z,27.31
2018-07-12T17:03:32.471Z,26.95
2018-07-12T17:06:04.670Z,26.74
2018-07-12T17:08:37.504Z,25.85
2018-07-12T17:11:09.687Z,25.74
2018-07-12T17:13:41.784Z,26.12
2018-07-12T17:16:13.952Z,25.83
2018-07-12T17:18:46.086Z,26.01
2018-07-12T17:21:18.733Z,25.67
2018-07-12T17:23:50.888Z,25.48
2018-07-12T17:26:23.039Z,25.61
2018-07-12T17:28:55.150Z,25.63
2018-07-12T17:31:27.327Z,25.61
2018-07-12T17:33:59.440Z,25.56
2018-07-12T17:36:32.174Z,25.36
2018-07-12T17:39:06.862Z,25.35
2018-07-12T17:41:39.020Z,24.99
2018-07-12T17:44:11.141Z,24.77
2018-07-12T17:46:43.287Z,24.62
2018-07-12T17:49:15.401Z,24.08
2018-07-12T17:51:47.866Z,24.02
2018-07-12T17:54:20.023Z,23.97
2018-07-12T17:56:56.357Z,24.05
2018-07-12T17:59:30.480Z,23.91
2018-07-12T18:02:03.772Z,23.64
2018-07-12T18:04:36.239Z,23.68
2018-07-12T18:07:09.455Z,23.63
2018-07-12T18:09:41.796Z,23.43
2018-07-12T18:12:19.143Z,23.32
2018-07-12T18:14:52.440Z,23.08
2018-07-12T18:17:24.540Z,23.04
2018-07-12T18:19:56.675Z,22.79
2018-07-12T18:22:32.223Z,22.72
2018-07-12T18:25:04.673Z,22.62
2018-07-12T18:27:37.202Z,22.63
2018-07-12T18:30:11.662Z,22.42
2018-07-12T18:32:52.700Z,22.31
2018-07-12T18:35:25.102Z,22.28
2018-07-12T18:37:58.197Z,22.12
2018-07-12T18:40:30.640Z,21.97
2018-07-12T18:43:02.840Z,21.79
2018-07-12T18:45:35.453Z,21.62
2018-07-12T18:48:07.687Z,21.46
2018-07-12T18:50:39.858Z,21.38
2018-07-12T18:53:20.252Z,21.37
2018-07-12T18:55:52.502Z,21.22
2018-07-12T18:58:24.661Z,21.01
2018-07-12T19:00:56.823Z,20.87
2018-07-12T19:03:28.992Z,20.77
2018-07-12T19:06:01.215Z,20.63
2018-07-12T19:08:33.431Z,20.49
2018-07-12T19:11:05.597Z,20.39
2018-07-12T19:13:37.949Z,20.55
2018-07-12T19:16:10.089Z,20.52
2018-07-12T19:18:42.902Z,20.53
2018-07-12T19:21:15.299Z,20.57
2018-07-12T19:23:47.461Z,20.49
2018-07-12T19:26:19.612Z,20.46
2018-07-12T19:28:51.935Z,20.50
2018-07-12T19:31:24.083Z,20.29
2018-07-12T19:33:56.321Z,20.11
2018-07-12T19:36:28.476Z,19.90
2018-07-12T19:39:00.746Z,20.04
2018-07-12T19:41:32.991Z,20.03
2018-07-12T19:44:05.065Z,20.01
2018-07-12T19:46:37.168Z,19.86
2018-07-12T19:49:09.359Z,19.61
2018-07-12T19:51:41.457Z,19.40
2018-07-12T19:54:13.676Z,19.22
2018-07-12T19:56:45.799Z,19.15
2018-07-12T19:59:18.223Z,19.16
2018-07-12T20:01:50.424Z,19.13
2018-07-12T20:04:22.501Z,19.17
2018-07-12T20:06:54.641Z,19.43
2018-07-12T20:09:26.730Z,19.50
2018-07-12T20:11:58.899Z,19.66
2018-07-12T20:14:31.175Z,19.65
2018-07-12T20:17:03.607Z,19.63
2018-07-12T20:19:35.795Z,19.64
2018-07-12T20:22:07.975Z,19.64
2018-07-12T20:24:40.088Z,19.73
2018-07-12T20:27:12.187Z,19.74
2018-07-12T20:29:44.371Z,19.78
2018-07-12T20:32:17.140Z,19.73
2018-07-12T20:34:49.226Z,19.69
2018-07-12T20:37:21.383Z,19.62
2018-07-12T20:39:53.547Z,19.63
2018-07-12T20:42:25.588Z,19.58
2018-07-12T20:44:57.684Z,19.64
2018-07-12T20:47:30.029Z,19.58
2018-07-12T20:50:02.309Z,19.64
2018-07-12T20:52:34.443Z,19.54
2018-07-12T20:55:06.721Z,19.53
2018-07-12T20:57:38.807Z,19.54
2018-07-12T21:00:11.476Z,19.61
2018-07-12T21:02:43.590Z,19.57
2018-07-12T21:05:15.686Z,19.49
2018-07-12T21:07:47.879Z,19.57
2018-07-12T21:10:20.305Z,19.56
2018-07-12T21:12:52.555Z,19.58
2018-07-12T21:15:24.718Z,19.58
2018-07-12T21:17:57.561Z,19.55
2018-07-12T21:20:29.663Z,19.53
2018-07-12T21:23:01.783Z,19.51
2018-07-12T21:25:33.871Z,19.45
2018-07-12T21:28:06.347Z,19.42
2018-07-12T21:30:38.572Z,19.40
2018-07-12T21:33:10.773Z,19.36
2018-07-12T21:35:42.816Z,19.39
2018-07-12T21:38:14.965Z,19.31
2018-07-12T21:40:47.089Z,19.33
2018-07-12T21:43:19.242Z,19.27
2018-07-12T21:48:30.271Z,19.50
2018-07-12T21:51:02.509Z,19.41
2018-07-12T21:53:34.689Z,19.34
2018-07-12T21:56:06.818Z,19.37
2018-07-12T21:58:38.921Z,19.26
2018-07-12T22:01:11.053Z,19.23
2018-07-12T22:03:43.276Z,19.14
2018-07-12T22:09:13.356Z,19.00
2018-07-12T22:11:46.560Z,19.05
2018-07-12T22:14:18.880Z,18.95
2018-07-12T22:16:51.089Z,18.98
2018-07-12T22:19:23.261Z,18.96
2018-07-12T22:22:08.508Z,18.98
2018-07-12T22:24:47.884Z,18.93
2018-07-12T22:27:19.946Z,18.86
2018-07-12T22:29:52.121Z,18.92
2018-07-12T22:32:24.203Z,18.97
2018-07-12T22:34:56.294Z,18.98
2018-07-12T22:37:28.802Z,18.91
2018-07-12T22:40:06.961Z,18.83
2018-07-12T22:42:44.858Z,18.75
2018-07-12T22:45:16.998Z,18.67
2018-07-12T22:47:49.127Z,18.64
2018-07-12T22:50:21.254Z,18.57
2018-07-12T22:52:54.077Z,18.50
2018-07-12T22:55:26.163Z,18.44
2018-07-12T22:57:58.253Z,18.50
2018-07-12T23:00:30.432Z,18.45
2018-07-12T23:03:02.601Z,18.44
2018-07-12T23:05:34.691Z,18.36
2018-07-12T23:08:06.880Z,18.45
2018-07-12T23:10:38.973Z,18.43
2018-07-12T23:13:11.094Z,18.42
2018-07-12T23:15:43.179Z,18.42
2018-07-12T23:18:15.347Z,18.49
2018-07-12T23:20:48.207Z,18.50
2018-07-12T23:23:20.439Z,18.51
2018-07-12T23:25:52.544Z,18.52
2018-07-12T23:28:24.729Z,18.49
2018-07-12T23:30:56.814Z,18.41
2018-07-12T23:33:28.946Z,18.38
2018-07-12T23:36:01.729Z,18.47
2018-07-12T23:38:33.934Z,18.50
2018-07-12T23:41:06.651Z,18.42
2018-07-12T23:43:39.419Z,18.43
2018-07-12T23:46:11.489Z,18.45
2018-07-12T23:48:43.656Z,18.47
2018-07-12T23:51:15.737Z,18.43
2018-07-12T23:53:47.819Z,18.41
2018-07-12T23:56:19.907Z,18.44
2018-07-12T23:58:52.007Z,18.36
